Time;durP1;ratioP1;P1;durP2;ratioP2;P2;SDS_P1;SDS_P2;PMS_P1;PMS_P2;Temp;Humidity;BMP_temperature;BMP_pressure;BME280_temperature;BME280_humidity;BME280_pressure;Samples;Min_cycle;Max_cycle;Signal;HPM_P1;HPM_P2
2023/09/20 00:08:07;;;;;;;16.52;4.22;;;;;;;26.40;55.38;96638.28;6125163;23;20093;-26
2023/09/20 00:10:33;;;;;;;9.90;3.88;;;;;;;26.49;55.39;96640.69;6125864;23;20009;-26
2023/09/20 00:23:04;;;;;;;13.95;3.72;;;;;;;26.61;55.25;96644.03;6125642;23;20528;-26
2023/09/20 00:39:00;;;;;;;11.48;3.60;;;;;;;26.76;55.19;96644.31;6127440;23;20057;-26
2023/09/20 00:54:52;;;;;;;11.27;4.85;;;;;;;26.43;56.47;96642.81;6126738;23;20060;-26
2023/09/20 01:08:07;;;;;;;13.15;5.45;;;;;;;26.51;56.48;96615.13;6127339;23;20017;-26
2023/09/20 01:23:59;;;;;;;12.93;5.13;;;;;;;26.53;56.82;96623.69;6125757;23;20036;-26
2023/09/20 01:26:25;;;;;;;11.93;4.57;;;;;;;26.49;56.80;96624.00;6126774;23;20014;-26
2023/09/20 01:38:56;;;;;;;15.30;5.28;;;;;;;26.63;57.06;96622.75;6126756;23;20013;-26
2023/09/20 01:54:55;;;;;;;16.45;4.95;;;;;;;26.36;58.18;96621.16;6126340;23;20048;-25
2023/09/20 02:24:14;;;;;;;13.82;5.72;;;;;;;26.20;58.79;96597.09;6124928;23;20452;-26
2023/09/20 02:40:07;;;;;;;14.70;5.70;;;;;;;26.24;58.24;96580.84;6125935;23;20016;-26
2023/09/20 02:42:43;;;;;;;10.88;4.60;;;;;;;26.18;58.18;96577.41;6126276;23;20077;-26
2023/09/20 02:55:15;;;;;;;12.43;4.93;;;;;;;26.53;57.02;96579.19;6125939;23;20348;-26
2023/09/20 03:11:09;;;;;;;14.25;5.95;;;;;;;26.25;58.01;96579.56;6125765;23;20379;-26
2023/09/20 03:41:51;;;;;;;11.02;3.83;;;;;;;26.37;57.12;96592.81;6125609;23;20028;-26
2023/09/20 03:54:58;;;;;;;15.02;5.30;;;;;;;26.25;57.53;96583.09;6125672;23;20013;-26
2023/09/20 04:10:51;;;;;;;11.43;4.35;;;;;;;26.47;56.28;96579.25;6127501;23;20020;-26
2023/09/20 04:26:43;;;;;;;14.10;4.05;;;;;;;26.53;55.33;96577.16;6126341;23;20033;-26
2023/09/20 04:42:36;;;;;;;15.50;5.25;;;;;;;26.36;56.26;96604.47;6127034;23;20376;-25
2023/09/20 04:55:40;;;;;;;14.88;4.35;;;;;;;26.53;55.31;96601.44;6127293;23;20508;-26
2023/09/20 04:58:06;;;;;;;11.63;4.28;;;;;;;26.43;55.13;96603.88;6126858;23;20002;-26
2023/09/20 05:10:52;;;;;;;12.10;4.53;;;;;;;26.41;54.34;96618.28;6127117;23;20012;-26
2023/09/20 05:26:44;;;;;;;12.05;5.00;;;;;;;26.41;54.83;96612.72;6125661;23;20068;-26
2023/09/20 05:42:36;;;;;;;11.25;4.38;;;;;;;26.34;53.61;96626.47;6126632;23;20021;-26
2023/09/20 05:58:29;;;;;;;10.38;3.72;;;;;;;26.26;52.79;96631.13;6126537;23;20032;-26
2023/09/20 06:11:34;;;;;;;8.13;2.80;;;;;;;26.58;49.94;96636.78;6126370;23;20020;-26
2023/09/20 06:27:26;;;;;;;8.25;3.58;;;;;;;26.48;50.31;96620.47;6125071;23;20383;-26
2023/09/20 06:43:20;;;;;;;12.45;3.95;;;;;;;26.36;51.75;96623.94;6126113;23;20016;-26
2023/09/20 06:45:52;;;;;;;10.77;3.70;;;;;;;26.50;51.31;96619.94;6126091;23;20057;-26
2023/09/20 06:48:22;;;;;;;12.23;4.07;;;;;;;26.19;51.90;96626.19;6126380;23;20025;-26
2023/09/20 06:57:31;;;;;;;7.60;3.38;;;;;;;26.49;51.44;96615.66;6126310;23;20017;-26
2023/09/20 07:13:26;;;;;;;9.02;3.50;;;;;;;26.44;52.51;96610.94;6125717;23;20021;-26
2023/09/20 07:29:18;;;;;;;10.10;3.45;;;;;;;26.37;52.99;96612.28;6124808;23;20499;-26
2023/09/20 07:42:40;;;;;;;6.95;3.22;;;;;;;26.54;52.17;96617.59;6125600;23;20352;-26
2023/09/20 07:58:35;;;;;;;13.88;3.60;;;;;;;26.65;52.25;96636.16;6125647;23;20033;-26
2023/09/20 08:14:27;;;;;;;14.40;3.92;;;;;;;26.52;53.00;96653.53;6125499;23;20093;-26
2023/09/20 09:00:27;;;;;;;12.10;3.80;;;;;;;26.77;52.39;96631.91;6127056;23;20069;-26
2023/09/20 09:14:00;;;;;;;15.88;4.18;;;;;;;26.92;52.04;96645.34;6127341;23;20021;-26
2023/09/20 09:29:52;;;;;;;15.20;4.80;;;;;;;26.81;51.95;96637.94;6125475;23;20081;-26
2023/09/20 09:45:53;;;;;;;12.52;4.95;;;;;;;26.95;51.04;96647.09;6126511;23;20045;-26
2023/09/20 09:59:16;;;;;;;13.45;4.05;;;;;;;27.10;50.41;96641.78;6126675;23;20072;-26
2023/09/20 10:15:22;;;;;;;10.85;4.20;;;;;;;27.17;48.90;96641.16;6125898;23;20028;-26
2023/09/20 10:31:19;;;;;;;8.82;3.60;;;;;;;27.01;48.58;96644.97;6125140;23;20033;-26
2023/09/20 10:44:46;;;;;;;7.25;2.90;;;;;;;27.26;47.11;96662.25;6126001;23;20025;-26
2023/09/20 11:00:40;;;;;;;8.57;2.88;;;;;;;27.37;45.48;96643.31;6126034;23;20029;-26
2023/09/20 11:03:09;;;;;;;8.38;3.28;;;;;;;27.38;45.73;96644.81;6126054;23;20009;-26
2023/09/20 11:15:43;;;;;;;10.70;2.72;;;;;;;27.41;44.89;96631.88;6125820;23;20069;-26
2023/09/20 11:31:37;;;;;;;5.63;1.70;;;;;;;27.27;44.00;96631.09;6124040;23;20349;-26
2023/09/20 11:47:31;;;;;;;8.35;2.65;;;;;;;27.32;44.23;96630.25;6125723;23;20024;-26
2023/09/20 12:00:39;;;;;;;7.05;2.13;;;;;;;27.37;43.34;96621.03;6125382;23;20336;-26
2023/09/20 12:16:14;;;;;;;5.20;2.30;;;;;;;27.42;43.43;96599.94;6125630;23;20017;-26
2023/09/20 12:18:40;;;;;;;5.28;1.90;;;;;;;27.43;42.99;96599.41;6126646;23;20080;-26
2023/09/20 12:21:08;;;;;;;3.83;1.92;;;;;;;27.42;43.23;96599.94;6127878;23;20009;-26
2023/09/20 12:31:03;;;;;;;8.50;2.45;;;;;;;27.43;43.96;96607.78;6127562;23;20032;-26
2023/09/20 12:47:45;;;;;;;5.80;1.90;;;;;;;27.43;43.25;96590.31;6097653;23;20024;-26
2023/09/20 13:17:04;;;;;;;6.07;2.10;;;;;;;27.49;44.50;96572.19;6097655;23;20341;-26
2023/09/20 13:32:56;;;;;;;7.32;2.42;;;;;;;27.39;46.13;96589.88;6120459;23;20029;-26
2023/09/20 13:48:49;;;;;;;8.27;2.45;;;;;;;27.45;45.70;96571.75;6126499;23;20017;-26
2023/09/20 14:01:53;;;;;;;8.88;2.53;;;;;;;27.43;45.01;96546.50;6126772;23;20017;-26
2023/09/20 14:04:19;;;;;;;5.18;1.92;;;;;;;27.37;44.05;96545.09;6126423;23;20009;-26
2023/09/20 14:17:05;;;;;;;6.95;2.00;;;;;;;27.36;44.00;96533.19;6126385;23;20029;-26
2023/09/20 14:32:57;;;;;;;5.75;1.92;;;;;;;27.35;44.24;96540.06;6124940;23;20577;-26
2023/09/20 14:48:51;;;;;;;7.05;1.90;;;;;;;27.49;44.29;96522.06;6125809;23;20025;-26
2023/09/20 15:04:43;;;;;;;3.45;2.10;;;;;;;27.45;44.56;96515.28;6126212;23;20013;-26
2023/09/20 15:17:45;;;;;;;6.15;2.40;;;;;;;27.36;45.63;96513.72;6125563;23;20021;-26
2023/09/20 15:33:37;;;;;;;5.97;1.98;;;;;;;27.46;47.50;96495.25;6124521;23;20425;-26
2023/09/20 15:49:31;;;;;;;9.35;2.83;;;;;;;27.27;47.58;96511.38;6125781;23;20021;-26
2023/09/20 16:05:24;;;;;;;6.60;2.67;;;;;;;27.27;47.29;96592.13;6127587;23;20941;-26
2023/09/20 16:07:49;;;;;;;9.27;2.30;;;;;;;27.13;46.58;96599.69;6127978;23;20006;-26
2023/09/20 16:20:20;;;;;;;15.05;3.28;;;;;;;27.00;52.80;96521.00;6127521;23;20017;-26
2023/09/20 16:33:35;;;;;;;9.80;3.10;;;;;;;27.12;53.39;96449.91;6127649;23;20040;-26
2023/09/20 16:50:18;;;;;;;6.55;2.45;;;;;;;26.89;53.59;96398.72;6098139;23;20053;-26
2023/09/20 17:06:10;;;;;;;5.05;1.88;;;;;;;26.91;50.56;96371.88;6097350;23;20018;-26
2023/09/20 17:19:10;;;;;;;7.07;2.13;;;;;;;26.93;50.52;96399.19;6097694;23;20025;-26
2023/09/20 17:35:03;;;;;;;7.15;3.08;;;;;;;26.66;49.71;96415.13;6114071;23;20028;-26
2023/09/20 17:51:00;;;;;;;9.75;3.42;;;;;;;26.58;52.75;96398.28;6126349;23;20033;-26
2023/09/20 18:20:19;;;;;;;11.40;3.40;;;;;;;26.33;53.44;96524.91;6126286;23;20017;-26
2023/09/20 18:36:16;;;;;;;13.40;4.00;;;;;;;26.16;55.25;96529.94;6125099;23;20096;-26
2023/09/20 18:52:11;;;;;;;16.90;4.90;;;;;;;25.32;57.42;96469.94;6125862;23;20020;-26
2023/09/20 19:05:16;;;;;;;12.65;3.25;;;;;;;26.38;55.32;96418.41;6126146;23;20016;-26
2023/09/20 19:07:46;;;;;;;12.27;3.05;;;;;;;26.32;54.66;96412.94;6126060;23;20002;-26
2023/09/20 19:20:28;;;;;;;9.25;3.20;;;;;;;26.33;54.09;96389.41;6125531;23;20149;-26
2023/09/20 19:36:21;;;;;;;11.98;3.45;;;;;;;25.99;54.88;96394.00;6124619;23;20101;-26
2023/09/20 19:52:37;;;;;;;11.88;2.95;;;;;;;25.97;54.13;96405.66;6125934;23;20078;-26
2023/09/20 20:05:52;;;;;;;11.77;3.65;;;;;;;26.12;53.99;96405.91;6125529;23;20406;-26
2023/09/20 20:22:04;;;;;;;12.25;3.88;;;;;;;25.99;54.47;96421.78;6125562;23;20071;-26
2023/09/20 20:37:56;;;;;;;11.27;3.85;;;;;;;26.10;54.19;96405.69;6124393;23;20029;-26
2023/09/20 20:51:25;;;;;;;12.55;3.88;;;;;;;25.78;54.52;96393.84;6127767;23;20093;-26
2023/09/20 21:06:58;;;;;;;8.73;3.67;;;;;;;25.79;54.45;96367.56;6126899;23;20037;-26
2023/09/20 21:22:52;;;;;;;9.50;2.88;;;;;;;25.75;54.85;96353.97;6127135;23;20021;-26
2023/09/20 21:25:32;;;;;;;11.50;3.05;;;;;;;25.76;54.23;96355.47;6127103;23;20006;-26
2023/09/20 21:38:07;;;;;;;8.40;3.05;;;;;;;25.92;54.10;96352.97;6125900;23;20084;-26
2023/09/20 21:40:33;;;;;;;11.98;3.22;;;;;;;25.67;53.52;96346.81;6100519;23;20089;-26
2023/09/20 21:53:04;;;;;;;9.13;2.70;;;;;;;25.85;52.25;96350.78;6127006;23;20032;-26
2023/09/20 22:09:03;;;;;;;10.00;2.42;;;;;;;25.90;51.11;96356.28;6126405;23;20344;-26
2023/09/20 22:22:26;;;;;;;7.75;2.15;;;;;;;26.11;49.52;96370.31;6126453;23;20013;-26
2023/09/20 22:38:18;;;;;;;10.90;1.85;;;;;;;26.12;49.35;96366.25;6124870;23;20076;-26
2023/09/20 22:54:12;;;;;;;9.35;2.20;;;;;;;26.12;47.45;96321.78;6126146;23;20013;-26
2023/09/20 22:56:42;;;;;;;10.02;2.40;;;;;;;26.09;47.75;96320.81;6126461;23;20009;-26
2023/09/20 22:59:08;;;;;;;10.13;2.00;;;;;;;26.20;47.77;96319.88;6126341;23;20060;-26
2023/09/20 23:08:34;;;;;;;8.85;2.28;;;;;;;25.99;49.19;96325.28;6126158;23;20077;-26
2023/09/20 23:24:28;;;;;;;7.15;2.35;;;;;;;25.94;49.24;96315.03;6125627;23;20012;-26
2023/09/20 23:55:09;;;;;;;10.95;2.45;;;;;;;25.95;49.02;96338.00;6125407;23;20017;-26
